KTRL/TRL METAR and TAF weather

Enter ICAO airport designator
Station Type Date Time Source
KTRL METAR 2018/12/12 10:53 UTC NOAA

KTRL 121053Z AUTO 18009KT 10SM FEW039 09/07 A3006 RMK AO2 SLP178 T00940067


Station Type Date Time Source
KTRL Decoded METAR 2018/12/12 10:53 UTC NOAA

TERRELL MUNICIPAL AIRPORT, TX, United States (KTRL) 32-43N 96-16W 144M
Dec 12, 2018 - 05:53 AM EST / 2018.12.12 1053 UTC
Wind: from the S (180 degrees) at 10 MPH (9 KT):0
Visibility: 10 mile(s):0
Sky conditions: mostly clear
Temperature: 48.9 F (9.4 C)
Dew Point: 44.1 F (6.7 C)
Relative Humidity: 83%
Pressure (altimeter): 30.06 in. Hg (1017 hPa)
ob: KTRL 121053Z AUTO 18009KT 10SM FEW039 09/07 A3006 RMK AO2 SLP178 T00940067
cycle: 11

Station Type Date Time Source
KTRL TAF UTC NOAA

Error!


Example: see airport list